sensor_id;sensor_type;location;lat;lon;timestamp;P1;durP1;ratioP1;P2;durP2;ratioP2
59052;SDS011;44843;44.728;10.396;2023-04-16T00:00:20;6.43;;;2.90;;
59052;SDS011;44843;44.728;10.396;2023-04-16T00:02:45;6.63;;;2.97;;
59052;SDS011;44843;44.728;10.396;2023-04-16T00:05:12;6.37;;;3.13;;
59052;SDS011;44843;44.728;10.396;2023-04-16T00:07:37;5.75;;;2.88;;
59052;SDS011;44843;44.728;10.396;2023-04-16T00:10:03;4.60;;;2.87;;
59052;SDS011;44843;44.728;10.396;2023-04-16T00:12:28;5.53;;;2.97;;
59052;SDS011;44843;44.728;10.396;2023-04-16T00:14:54;11.83;;;3.50;;
59052;SDS011;44843;44.728;10.396;2023-04-16T00:17:19;9.98;;;3.25;;
59052;SDS011;44843;44.728;10.396;2023-04-16T00:19:44;6.97;;;3.43;;
59052;SDS011;44843;44.728;10.396;2023-04-16T00:22:10;4.50;;;3.07;;
59052;SDS011;44843;44.728;10.396;2023-04-16T00:24:35;5.60;;;3.20;;
59052;SDS011;44843;44.728;10.396;2023-04-16T00:27:00;7.10;;;3.17;;
59052;SDS011;44843;44.728;10.396;2023-04-16T00:29:26;7.27;;;3.30;;
59052;SDS011;44843;44.728;10.396;2023-04-16T00:31:52;5.15;;;3.58;;
59052;SDS011;44843;44.728;10.396;2023-04-16T00:34:18;6.47;;;3.20;;
59052;SDS011;44843;44.728;10.396;2023-04-16T00:36:43;5.33;;;3.10;;
59052;SDS011;44843;44.728;10.396;2023-04-16T00:39:08;6.80;;;3.47;;
59052;SDS011;44843;44.728;10.396;2023-04-16T00:41:33;7.67;;;3.30;;
59052;SDS011;44843;44.728;10.396;2023-04-16T00:43:59;7.70;;;3.43;;
59052;SDS011;44843;44.728;10.396;2023-04-16T00:46:24;5.37;;;3.43;;
59052;SDS011;44843;44.728;10.396;2023-04-16T00:48:50;7.50;;;3.60;;
59052;SDS011;44843;44.728;10.396;2023-04-16T00:51:17;5.50;;;3.27;;
59052;SDS011;44843;44.728;10.396;2023-04-16T00:53:43;7.32;;;3.28;;
59052;SDS011;44843;44.728;10.396;2023-04-16T00:56:09;6.22;;;3.20;;
59052;SDS011;44843;44.728;10.396;2023-04-16T00:58:34;5.23;;;3.30;;
59052;SDS011;44843;44.728;10.396;2023-04-16T01:01:00;7.20;;;3.43;;
59052;SDS011;44843;44.728;10.396;2023-04-16T01:06:06;5.20;;;2.80;;
59052;SDS011;44843;44.728;10.396;2023-04-16T01:08:31;5.07;;;3.00;;
59052;SDS011;44843;44.728;10.396;2023-04-16T01:10:56;6.33;;;3.20;;
59052;SDS011;44843;44.728;10.396;2023-04-16T01:13:22;6.57;;;3.27;;
59052;SDS011;44843;44.728;10.396;2023-04-16T01:15:47;5.70;;;3.23;;
59052;SDS011;44843;44.728;10.396;2023-04-16T01:18:13;6.10;;;3.00;;
59052;SDS011;44843;44.728;10.396;2023-04-16T01:20:39;6.03;;;3.20;;
59052;SDS011;44843;44.728;10.396;2023-04-16T01:23:04;8.52;;;3.33;;
59052;SDS011;44843;44.728;10.396;2023-04-16T01:25:29;9.53;;;3.60;;
59052;SDS011;44843;44.728;10.396;2023-04-16T01:27:54;5.77;;;3.10;;
59052;SDS011;44843;44.728;10.396;2023-04-16T01:30:21;6.10;;;3.22;;
59052;SDS011;44843;44.728;10.396;2023-04-16T01:32:46;6.50;;;3.10;;
59052;SDS011;44843;44.728;10.396;2023-04-16T01:35:11;7.53;;;3.63;;
59052;SDS011;44843;44.728;10.396;2023-04-16T01:37:37;6.50;;;2.90;;
59052;SDS011;44843;44.728;10.396;2023-04-16T01:40:02;7.03;;;3.50;;
59052;SDS011;44843;44.728;10.396;2023-04-16T01:42:27;5.68;;;3.15;;
59052;SDS011;44843;44.728;10.396;2023-04-16T01:44:52;7.73;;;3.47;;
59052;SDS011;44843;44.728;10.396;2023-04-16T01:47:18;5.47;;;3.23;;
59052;SDS011;44843;44.728;10.396;2023-04-16T01:49:43;8.70;;;3.43;;
59052;SDS011;44843;44.728;10.396;2023-04-16T01:52:09;6.80;;;3.15;;
59052;SDS011;44843;44.728;10.396;2023-04-16T01:54:34;6.70;;;3.33;;
59052;SDS011;44843;44.728;10.396;2023-04-16T01:57:00;7.07;;;3.13;;
59052;SDS011;44843;44.728;10.396;2023-04-16T01:59:25;8.47;;;3.30;;
59052;SDS011;44843;44.728;10.396;2023-04-16T02:01:51;5.53;;;2.97;;
59052;SDS011;44843;44.728;10.396;2023-04-16T02:04:16;6.93;;;3.00;;
59052;SDS011;44843;44.728;10.396;2023-04-16T02:06:41;4.77;;;3.00;;
59052;SDS011;44843;44.728;10.396;2023-04-16T02:09:06;7.67;;;3.00;;
59052;SDS011;44843;44.728;10.396;2023-04-16T02:11:32;6.37;;;3.03;;
59052;SDS011;44843;44.728;10.396;2023-04-16T02:13:57;6.73;;;3.50;;
59052;SDS011;44843;44.728;10.396;2023-04-16T02:16:22;5.53;;;3.13;;
59052;SDS011;44843;44.728;10.396;2023-04-16T02:18:48;8.00;;;2.93;;
59052;SDS011;44843;44.728;10.396;2023-04-16T02:21:13;5.10;;;3.20;;
59052;SDS011;44843;44.728;10.396;2023-04-16T02:23:38;7.45;;;3.22;;
59052;SDS011;44843;44.728;10.396;2023-04-16T02:26:05;4.78;;;3.08;;
59052;SDS011;44843;44.728;10.396;2023-04-16T02:28:30;5.70;;;3.00;;
59052;SDS011;44843;44.728;10.396;2023-04-16T02:30:55;9.33;;;3.30;;
59052;SDS011;44843;44.728;10.396;2023-04-16T02:33:21;5.90;;;3.27;;
59052;SDS011;44843;44.728;10.396;2023-04-16T02:35:46;5.87;;;3.10;;
59052;SDS011;44843;44.728;10.396;2023-04-16T02:38:12;6.43;;;3.10;;
59052;SDS011;44843;44.728;10.396;2023-04-16T02:40:37;6.70;;;3.50;;
59052;SDS011;44843;44.728;10.396;2023-04-16T02:43:03;6.20;;;3.20;;
59052;SDS011;44843;44.728;10.396;2023-04-16T02:45:28;6.70;;;3.80;;
59052;SDS011;44843;44.728;10.396;2023-04-16T02:47:55;5.95;;;3.45;;
59052;SDS011;44843;44.728;10.396;2023-04-16T02:50:20;7.07;;;3.80;;
59052;SDS011;44843;44.728;10.396;2023-04-16T02:52:45;5.33;;;3.23;;
59052;SDS011;44843;44.728;10.396;2023-04-16T02:55:11;6.40;;;3.33;;
59052;SDS011;44843;44.728;10.396;2023-04-16T02:57:36;7.20;;;3.57;;
59052;SDS011;44843;44.728;10.396;2023-04-16T03:00:01;7.77;;;3.10;;
59052;SDS011;44843;44.728;10.396;2023-04-16T03:02:28;6.47;;;3.40;;
59052;SDS011;44843;44.728;10.396;2023-04-16T03:04:54;7.03;;;3.03;;
59052;SDS011;44843;44.728;10.396;2023-04-16T03:07:19;7.03;;;3.33;;
59052;SDS011;44843;44.728;10.396;2023-04-16T03:09:45;6.43;;;3.20;;
59052;SDS011;44843;44.728;10.396;2023-04-16T03:12:10;8.87;;;4.00;;
59052;SDS011;44843;44.728;10.396;2023-04-16T03:14:35;5.53;;;2.80;;
59052;SDS011;44843;44.728;10.396;2023-04-16T03:17:01;6.90;;;3.10;;
59052;SDS011;44843;44.728;10.396;2023-04-16T03:19:26;21.37;;;3.80;;
59052;SDS011;44843;44.728;10.396;2023-04-16T03:21:51;6.60;;;3.03;;
59052;SDS011;44843;44.728;10.396;2023-04-16T03:24:16;4.53;;;3.00;;
59052;SDS011;44843;44.728;10.396;2023-04-16T03:26:42;6.60;;;3.20;;
59052;SDS011;44843;44.728;10.396;2023-04-16T03:29:07;8.27;;;3.63;;
59052;SDS011;44843;44.728;10.396;2023-04-16T03:31:32;6.40;;;3.13;;
59052;SDS011;44843;44.728;10.396;2023-04-16T03:33:57;6.43;;;3.20;;
59052;SDS011;44843;44.728;10.396;2023-04-16T03:36:23;7.32;;;3.33;;
59052;SDS011;44843;44.728;10.396;2023-04-16T03:38:48;8.83;;;3.20;;
59052;SDS011;44843;44.728;10.396;2023-04-16T03:41:13;7.43;;;3.20;;
59052;SDS011;44843;44.728;10.396;2023-04-16T03:43:39;9.90;;;3.33;;
59052;SDS011;44843;44.728;10.396;2023-04-16T03:46:04;7.07;;;3.30;;
59052;SDS011;44843;44.728;10.396;2023-04-16T03:48:30;7.27;;;3.37;;
59052;SDS011;44843;44.728;10.396;2023-04-16T03:50:55;5.83;;;3.30;;
59052;SDS011;44843;44.728;10.396;2023-04-16T03:53:20;7.30;;;3.47;;
59052;SDS011;44843;44.728;10.396;2023-04-16T03:55:48;9.30;;;3.40;;
59052;SDS011;44843;44.728;10.396;2023-04-16T03:58:13;4.93;;;3.03;;
59052;SDS011;44843;44.728;10.396;2023-04-16T04:00:40;7.43;;;3.40;;
59052;SDS011;44843;44.728;10.396;2023-04-16T04:03:05;6.03;;;3.10;;
59052;SDS011;44843;44.728;10.396;2023-04-16T04:05:30;5.90;;;3.00;;
59052;SDS011;44843;44.728;10.396;2023-04-16T04:07:55;6.97;;;3.37;;
59052;SDS011;44843;44.728;10.396;2023-04-16T04:10:21;7.27;;;3.43;;
59052;SDS011;44843;44.728;10.396;2023-04-16T04:12:46;8.07;;;3.47;;
59052;SDS011;44843;44.728;10.396;2023-04-16T04:15:11;9.97;;;3.70;;
59052;SDS011;44843;44.728;10.396;2023-04-16T04:17:36;8.00;;;3.90;;
59052;SDS011;44843;44.728;10.396;2023-04-16T04:20:02;7.03;;;3.20;;
59052;SDS011;44843;44.728;10.396;2023-04-16T04:22:27;6.83;;;3.00;;
59052;SDS011;44843;44.728;10.396;2023-04-16T04:24:52;6.43;;;3.20;;
59052;SDS011;44843;44.728;10.396;2023-04-16T04:27:17;8.07;;;3.03;;
59052;SDS011;44843;44.728;10.396;2023-04-16T04:29:43;6.80;;;3.00;;
59052;SDS011;44843;44.728;10.396;2023-04-16T04:32:08;7.00;;;2.90;;
59052;SDS011;44843;44.728;10.396;2023-04-16T04:34:33;8.57;;;3.10;;
59052;SDS011;44843;44.728;10.396;2023-04-16T04:36:58;8.00;;;3.23;;
59052;SDS011;44843;44.728;10.396;2023-04-16T04:39:24;9.70;;;3.43;;
59052;SDS011;44843;44.728;10.396;2023-04-16T04:41:49;8.60;;;3.30;;
59052;SDS011;44843;44.728;10.396;2023-04-16T04:44:15;10.57;;;3.27;;
59052;SDS011;44843;44.728;10.396;2023-04-16T04:46:40;9.77;;;3.47;;
59052;SDS011;44843;44.728;10.396;2023-04-16T04:49:05;8.80;;;3.37;;
59052;SDS011;44843;44.728;10.396;2023-04-16T04:51:31;9.23;;;3.20;;
59052;SDS011;44843;44.728;10.396;2023-04-16T04:53:56;10.97;;;3.27;;
59052;SDS011;44843;44.728;10.396;2023-04-16T04:56:21;9.13;;;3.10;;
59052;SDS011;44843;44.728;10.396;2023-04-16T04:58:48;8.83;;;2.80;;
59052;SDS011;44843;44.728;10.396;2023-04-16T05:01:13;10.23;;;3.30;;
59052;SDS011;44843;44.728;10.396;2023-04-16T05:03:39;9.67;;;3.17;;
59052;SDS011;44843;44.728;10.396;2023-04-16T05:06:05;6.57;;;3.10;;
59052;SDS011;44843;44.728;10.396;2023-04-16T05:08:30;9.10;;;3.27;;
59052;SDS011;44843;44.728;10.396;2023-04-16T05:10:55;8.83;;;3.03;;
59052;SDS011;44843;44.728;10.396;2023-04-16T05:13:21;6.83;;;3.10;;
59052;SDS011;44843;44.728;10.396;2023-04-16T05:15:46;6.77;;;2.80;;
59052;SDS011;44843;44.728;10.396;2023-04-16T05:18:11;10.27;;;3.40;;
59052;SDS011;44843;44.728;10.396;2023-04-16T05:20:36;6.63;;;2.83;;
59052;SDS011;44843;44.728;10.396;2023-04-16T05:23:02;9.00;;;3.13;;
59052;SDS011;44843;44.728;10.396;2023-04-16T05:25:27;6.60;;;2.92;;
59052;SDS011;44843;44.728;10.396;2023-04-16T05:27:52;10.53;;;3.10;;
59052;SDS011;44843;44.728;10.396;2023-04-16T05:30:18;8.23;;;3.27;;
59052;SDS011;44843;44.728;10.396;2023-04-16T05:32:43;8.52;;;2.85;;
59052;SDS011;44843;44.728;10.396;2023-04-16T05:35:08;8.27;;;2.80;;
59052;SDS011;44843;44.728;10.396;2023-04-16T05:37:33;11.27;;;3.20;;
59052;SDS011;44843;44.728;10.396;2023-04-16T05:39:59;7.23;;;2.97;;
59052;SDS011;44843;44.728;10.396;2023-04-16T05:42:24;7.83;;;3.00;;
59052;SDS011;44843;44.728;10.396;2023-04-16T05:44:49;8.63;;;3.10;;
59052;SDS011;44843;44.728;10.396;2023-04-16T05:47:15;6.55;;;2.78;;
59052;SDS011;44843;44.728;10.396;2023-04-16T05:49:41;7.33;;;2.80;;
59052;SDS011;44843;44.728;10.396;2023-04-16T05:52:06;7.47;;;2.67;;
59052;SDS011;44843;44.728;10.396;2023-04-16T05:54:31;6.60;;;2.73;;
59052;SDS011;44843;44.728;10.396;2023-04-16T05:56:57;7.97;;;2.80;;
59052;SDS011;44843;44.728;10.396;2023-04-16T05:59:22;8.67;;;3.10;;
59052;SDS011;44843;44.728;10.396;2023-04-16T06:01:47;6.90;;;2.90;;
59052;SDS011;44843;44.728;10.396;2023-04-16T06:04:12;8.40;;;2.90;;
59052;SDS011;44843;44.728;10.396;2023-04-16T06:06:38;8.63;;;3.00;;
59052;SDS011;44843;44.728;10.396;2023-04-16T06:09:04;8.65;;;2.95;;
59052;SDS011;44843;44.728;10.396;2023-04-16T06:11:29;8.07;;;2.87;;
59052;SDS011;44843;44.728;10.396;2023-04-16T06:13:54;7.60;;;3.23;;
59052;SDS011;44843;44.728;10.396;2023-04-16T06:16:20;5.20;;;3.10;;
59052;SDS011;44843;44.728;10.396;2023-04-16T06:18:45;6.67;;;3.33;;
59052;SDS011;44843;44.728;10.396;2023-04-16T06:21:10;6.90;;;3.22;;
59052;SDS011;44843;44.728;10.396;2023-04-16T06:23:36;7.97;;;3.80;;
59052;SDS011;44843;44.728;10.396;2023-04-16T06:26:01;9.13;;;3.83;;
59052;SDS011;44843;44.728;10.396;2023-04-16T06:28:26;8.13;;;3.43;;
59052;SDS011;44843;44.728;10.396;2023-04-16T06:30:51;14.13;;;4.33;;
59052;SDS011;44843;44.728;10.396;2023-04-16T06:33:16;9.27;;;3.90;;
59052;SDS011;44843;44.728;10.396;2023-04-16T06:35:42;5.97;;;3.57;;
59052;SDS011;44843;44.728;10.396;2023-04-16T06:38:07;7.13;;;3.42;;
59052;SDS011;44843;44.728;10.396;2023-04-16T06:40:32;7.83;;;3.80;;
59052;SDS011;44843;44.728;10.396;2023-04-16T06:42:57;8.23;;;4.07;;
59052;SDS011;44843;44.728;10.396;2023-04-16T06:45:23;9.68;;;3.92;;
59052;SDS011;44843;44.728;10.396;2023-04-16T06:47:48;8.05;;;4.00;;
59052;SDS011;44843;44.728;10.396;2023-04-16T06:55:05;7.28;;;4.13;;
59052;SDS011;44843;44.728;10.396;2023-04-16T06:57:32;6.32;;;4.18;;
59052;SDS011;44843;44.728;10.396;2023-04-16T06:59:57;8.30;;;3.72;;
59052;SDS011;44843;44.728;10.396;2023-04-16T07:58:02;8.02;;;3.75;;
59052;SDS011;44843;44.728;10.396;2023-04-16T08:00:28;6.93;;;3.80;;
59052;SDS011;44843;44.728;10.396;2023-04-16T08:02:53;7.55;;;3.65;;
59052;SDS011;44843;44.728;10.396;2023-04-16T08:05:18;11.05;;;4.18;;
59052;SDS011;44843;44.728;10.396;2023-04-16T08:07:44;6.57;;;3.00;;
59052;SDS011;44843;44.728;10.396;2023-04-16T08:10:09;5.82;;;3.28;;
59052;SDS011;44843;44.728;10.396;2023-04-16T08:12:35;9.30;;;2.80;;
59052;SDS011;44843;44.728;10.396;2023-04-16T08:15:00;6.63;;;3.10;;
59052;SDS011;44843;44.728;10.396;2023-04-16T08:17:25;6.75;;;3.03;;
59052;SDS011;44843;44.728;10.396;2023-04-16T08:19:52;7.20;;;3.13;;
59052;SDS011;44843;44.728;10.396;2023-04-16T08:22:18;6.95;;;2.97;;
59052;SDS011;44843;44.728;10.396;2023-04-16T08:24:43;7.30;;;3.35;;
59052;SDS011;44843;44.728;10.396;2023-04-16T08:27:08;6.83;;;3.43;;
59052;SDS011;44843;44.728;10.396;2023-04-16T08:29:35;6.35;;;3.28;;
59052;SDS011;44843;44.728;10.396;2023-04-16T08:32:01;5.90;;;2.75;;
59052;SDS011;44843;44.728;10.396;2023-04-16T09:52:49;3.38;;;1.95;;
59052;SDS011;44843;44.728;10.396;2023-04-16T09:55:26;4.18;;;1.80;;
59052;SDS011;44843;44.728;10.396;2023-04-16T10:00:17;5.88;;;1.60;;
59052;SDS011;44843;44.728;10.396;2023-04-16T10:02:42;3.63;;;1.67;;
59052;SDS011;44843;44.728;10.396;2023-04-16T10:05:07;4.60;;;1.90;;
59052;SDS011;44843;44.728;10.396;2023-04-16T10:07:33;5.03;;;1.98;;
59052;SDS011;44843;44.728;10.396;2023-04-16T10:09:59;5.35;;;1.85;;
59052;SDS011;44843;44.728;10.396;2023-04-16T10:12:24;2.90;;;1.70;;
59052;SDS011;44843;44.728;10.396;2023-04-16T10:14:51;6.10;;;1.60;;
59052;SDS011;44843;44.728;10.396;2023-04-16T10:17:16;2.80;;;1.60;;
59052;SDS011;44843;44.728;10.396;2023-04-16T10:19:42;4.75;;;1.40;;
59052;SDS011;44843;44.728;10.396;2023-04-16T10:22:07;2.83;;;1.33;;
59052;SDS011;44843;44.728;10.396;2023-04-16T10:24:33;3.72;;;1.50;;
59052;SDS011;44843;44.728;10.396;2023-04-16T10:26:58;2.38;;;1.50;;
59052;SDS011;44843;44.728;10.396;2023-04-16T10:29:24;2.83;;;1.45;;
59052;SDS011;44843;44.728;10.396;2023-04-16T10:31:50;1.58;;;1.30;;
59052;SDS011;44843;44.728;10.396;2023-04-16T10:34:15;4.13;;;3.10;;
59052;SDS011;44843;44.728;10.396;2023-04-16T10:36:41;3.08;;;1.73;;
59052;SDS011;44843;44.728;10.396;2023-04-16T10:39:10;5.65;;;1.50;;
59052;SDS011;44843;44.728;10.396;2023-04-16T10:41:36;2.38;;;1.65;;
59052;SDS011;44843;44.728;10.396;2023-04-16T10:44:03;2.60;;;1.30;;
59052;SDS011;44843;44.728;10.396;2023-04-16T11:01:11;3.27;;;1.70;;
59052;SDS011;44843;44.728;10.396;2023-04-16T11:03:40;2.13;;;1.35;;
59052;SDS011;44843;44.728;10.396;2023-04-16T11:06:10;2.58;;;1.40;;
59052;SDS011;44843;44.728;10.396;2023-04-16T11:08:37;1.70;;;1.13;;
59052;SDS011;44843;44.728;10.396;2023-04-16T11:11:03;2.45;;;1.40;;
59052;SDS011;44843;44.728;10.396;2023-04-16T11:13:29;1.85;;;1.30;;
59052;SDS011;44843;44.728;10.396;2023-04-16T11:15:56;4.13;;;2.15;;
59052;SDS011;44843;44.728;10.396;2023-04-16T11:18:21;2.83;;;1.30;;
59052;SDS011;44843;44.728;10.396;2023-04-16T11:20:46;2.17;;;1.60;;
59052;SDS011;44843;44.728;10.396;2023-04-16T11:23:12;3.70;;;1.45;;
59052;SDS011;44843;44.728;10.396;2023-04-16T11:25:37;2.33;;;1.38;;
59052;SDS011;44843;44.728;10.396;2023-04-16T11:28:02;4.13;;;1.45;;
59052;SDS011;44843;44.728;10.396;2023-04-16T11:30:29;1.80;;;1.17;;
59052;SDS011;44843;44.728;10.396;2023-04-16T11:32:55;2.95;;;1.60;;
59052;SDS011;44843;44.728;10.396;2023-04-16T11:35:20;1.58;;;1.40;;
59052;SDS011;44843;44.728;10.396;2023-04-16T11:37:45;2.25;;;1.23;;
59052;SDS011;44843;44.728;10.396;2023-04-16T11:40:12;1.80;;;1.10;;
59052;SDS011;44843;44.728;10.396;2023-04-16T11:42:38;3.90;;;1.20;;
59052;SDS011;44843;44.728;10.396;2023-04-16T11:45:07;2.50;;;1.00;;
59052;SDS011;44843;44.728;10.396;2023-04-16T11:47:43;2.47;;;1.40;;
59052;SDS011;44843;44.728;10.396;2023-04-16T11:50:15;1.67;;;0.98;;
59052;SDS011;44843;44.728;10.396;2023-04-16T11:52:40;3.00;;;1.30;;
59052;SDS011;44843;44.728;10.396;2023-04-16T11:55:06;1.88;;;1.10;;
59052;SDS011;44843;44.728;10.396;2023-04-16T11:57:31;3.00;;;1.20;;
59052;SDS011;44843;44.728;10.396;2023-04-16T11:59:57;2.73;;;1.17;;
59052;SDS011;44843;44.728;10.396;2023-04-16T12:05:29;2.93;;;1.23;;
59052;SDS011;44843;44.728;10.396;2023-04-16T12:07:58;2.25;;;1.10;;
59052;SDS011;44843;44.728;10.396;2023-04-16T12:10:23;3.55;;;0.90;;
59052;SDS011;44843;44.728;10.396;2023-04-16T12:12:49;1.23;;;1.00;;
59052;SDS011;44843;44.728;10.396;2023-04-16T12:15:15;2.08;;;0.80;;
59052;SDS011;44843;44.728;10.396;2023-04-16T12:17:40;1.17;;;0.80;;
59052;SDS011;44843;44.728;10.396;2023-04-16T12:20:09;1.40;;;0.95;;
59052;SDS011;44843;44.728;10.396;2023-04-16T12:22:38;2.45;;;0.90;;
59052;SDS011;44843;44.728;10.396;2023-04-16T12:25:09;1.38;;;0.80;;
59052;SDS011;44843;44.728;10.396;2023-04-16T12:30:06;1.23;;;0.70;;
59052;SDS011;44843;44.728;10.396;2023-04-16T12:32:32;2.15;;;0.80;;
59052;SDS011;44843;44.728;10.396;2023-04-16T12:34:57;2.05;;;0.75;;
59052;SDS011;44843;44.728;10.396;2023-04-16T12:37:22;0.70;;;0.70;;
59052;SDS011;44843;44.728;10.396;2023-04-16T12:39:47;1.17;;;0.65;;
59052;SDS011;44843;44.728;10.396;2023-04-16T12:42:13;3.00;;;0.80;;
59052;SDS011;44843;44.728;10.396;2023-04-16T12:44:38;0.73;;;0.65;;
59052;SDS011;44843;44.728;10.396;2023-04-16T12:47:04;0.88;;;0.70;;
59052;SDS011;44843;44.728;10.396;2023-04-16T12:49:29;0.77;;;0.77;;
59052;SDS011;44843;44.728;10.396;2023-04-16T12:51:54;1.27;;;0.70;;
59052;SDS011;44843;44.728;10.396;2023-04-16T12:54:20;1.20;;;0.80;;
59052;SDS011;44843;44.728;10.396;2023-04-16T12:56:45;1.85;;;0.70;;
59052;SDS011;44843;44.728;10.396;2023-04-16T12:59:11;1.77;;;0.70;;
59052;SDS011;44843;44.728;10.396;2023-04-16T13:01:36;2.20;;;0.80;;
59052;SDS011;44843;44.728;10.396;2023-04-16T13:04:01;0.90;;;0.60;;
59052;SDS011;44843;44.728;10.396;2023-04-16T13:06:26;1.25;;;0.60;;
59052;SDS011;44843;44.728;10.396;2023-04-16T13:08:51;0.75;;;0.70;;
59052;SDS011;44843;44.728;10.396;2023-04-16T13:11:17;1.20;;;0.73;;
59052;SDS011;44843;44.728;10.396;2023-04-16T13:13:43;1.23;;;0.57;;
59052;SDS011;44843;44.728;10.396;2023-04-16T13:16:08;1.10;;;0.70;;
59052;SDS011;44843;44.728;10.396;2023-04-16T13:18:34;1.15;;;0.80;;
59052;SDS011;44843;44.728;10.396;2023-04-16T16:46:46;0.75;;;0.60;;
59052;SDS011;44843;44.728;10.396;2023-04-16T16:49:15;1.55;;;0.80;;
59052;SDS011;44843;44.728;10.396;2023-04-16T16:51:40;0.80;;;0.73;;
59052;SDS011;44843;44.728;10.396;2023-04-16T16:54:06;1.30;;;0.73;;
59052;SDS011;44843;44.728;10.396;2023-04-16T16:56:31;0.73;;;0.73;;
59052;SDS011;44843;44.728;10.396;2023-04-16T16:58:57;0.60;;;0.60;;
59052;SDS011;44843;44.728;10.396;2023-04-16T17:01:23;1.50;;;0.93;;
59052;SDS011;44843;44.728;10.396;2023-04-16T17:03:49;3.25;;;0.98;;
59052;SDS011;44843;44.728;10.396;2023-04-16T17:06:14;2.63;;;0.70;;
59052;SDS011;44843;44.728;10.396;2023-04-16T17:08:39;1.38;;;0.70;;
59052;SDS011;44843;44.728;10.396;2023-04-16T17:11:04;0.60;;;0.60;;
59052;SDS011;44843;44.728;10.396;2023-04-16T17:13:30;1.25;;;0.60;;
59052;SDS011;44843;44.728;10.396;2023-04-16T17:15:56;0.73;;;0.65;;
59052;SDS011;44843;44.728;10.396;2023-04-16T17:18:22;0.63;;;0.50;;
59052;SDS011;44843;44.728;10.396;2023-04-16T17:20:47;0.90;;;0.60;;
59052;SDS011;44843;44.728;10.396;2023-04-16T17:23:12;1.98;;;0.60;;
59052;SDS011;44843;44.728;10.396;2023-04-16T17:25:38;0.63;;;0.63;;
59052;SDS011;44843;44.728;10.396;2023-04-16T17:28:03;0.60;;;0.60;;
59052;SDS011;44843;44.728;10.396;2023-04-16T17:30:30;0.90;;;0.70;;
59052;SDS011;44843;44.728;10.396;2023-04-16T17:32:55;1.70;;;0.80;;
59052;SDS011;44843;44.728;10.396;2023-04-16T17:35:20;2.60;;;0.75;;
59052;SDS011;44843;44.728;10.396;2023-04-16T17:37:46;2.55;;;0.80;;
59052;SDS011;44843;44.728;10.396;2023-04-16T17:40:11;1.60;;;0.88;;
59052;SDS011;44843;44.728;10.396;2023-04-16T17:42:38;0.90;;;0.80;;
59052;SDS011;44843;44.728;10.396;2023-04-16T17:45:03;2.65;;;0.90;;
59052;SDS011;44843;44.728;10.396;2023-04-16T17:47:29;3.75;;;0.85;;
59052;SDS011;44843;44.728;10.396;2023-04-16T17:49:54;2.80;;;0.90;;
59052;SDS011;44843;44.728;10.396;2023-04-16T17:52:20;1.42;;;0.73;;
59052;SDS011;44843;44.728;10.396;2023-04-16T17:54:45;1.15;;;0.70;;
59052;SDS011;44843;44.728;10.396;2023-04-16T17:57:10;0.60;;;0.60;;
59052;SDS011;44843;44.728;10.396;2023-04-16T17:59:36;0.98;;;0.55;;
59052;SDS011;44843;44.728;10.396;2023-04-16T18:02:01;0.98;;;0.77;;
59052;SDS011;44843;44.728;10.396;2023-04-16T18:04:26;1.33;;;0.70;;
59052;SDS011;44843;44.728;10.396;2023-04-16T18:06:51;1.52;;;0.85;;
59052;SDS011;44843;44.728;10.396;2023-04-16T18:09:17;0.93;;;0.60;;
59052;SDS011;44843;44.728;10.396;2023-04-16T18:11:43;0.57;;;0.57;;
59052;SDS011;44843;44.728;10.396;2023-04-16T18:14:08;1.75;;;1.00;;
59052;SDS011;44843;44.728;10.396;2023-04-16T18:16:35;1.10;;;0.90;;
59052;SDS011;44843;44.728;10.396;2023-04-16T18:19:00;1.92;;;0.88;;
59052;SDS011;44843;44.728;10.396;2023-04-16T18:21:25;1.73;;;1.05;;
59052;SDS011;44843;44.728;10.396;2023-04-16T18:23:51;1.23;;;0.98;;
59052;SDS011;44843;44.728;10.396;2023-04-16T18:26:16;3.15;;;0.90;;
59052;SDS011;44843;44.728;10.396;2023-04-16T18:28:41;1.70;;;1.00;;
59052;SDS011;44843;44.728;10.396;2023-04-16T18:31:07;1.30;;;0.90;;
59052;SDS011;44843;44.728;10.396;2023-04-16T18:33:32;1.20;;;0.95;;
59052;SDS011;44843;44.728;10.396;2023-04-16T18:36:00;2.33;;;0.93;;
59052;SDS011;44843;44.728;10.396;2023-04-16T18:38:26;2.17;;;0.90;;
59052;SDS011;44843;44.728;10.396;2023-04-16T18:40:53;1.40;;;0.80;;
59052;SDS011;44843;44.728;10.396;2023-04-16T18:43:18;3.85;;;1.10;;
59052;SDS011;44843;44.728;10.396;2023-04-16T18:45:44;2.03;;;1.08;;
59052;SDS011;44843;44.728;10.396;2023-04-16T18:48:09;3.40;;;1.00;;
59052;SDS011;44843;44.728;10.396;2023-04-16T18:50:35;1.20;;;1.10;;
59052;SDS011;44843;44.728;10.396;2023-04-16T18:53:00;3.38;;;1.40;;
59052;SDS011;44843;44.728;10.396;2023-04-16T18:55:25;2.90;;;1.25;;
59052;SDS011;44843;44.728;10.396;2023-04-16T18:57:50;2.22;;;1.30;;
59052;SDS011;44843;44.728;10.396;2023-04-16T19:00:17;2.42;;;1.42;;
59052;SDS011;44843;44.728;10.396;2023-04-16T19:02:42;2.42;;;1.08;;
59052;SDS011;44843;44.728;10.396;2023-04-16T19:05:07;1.20;;;1.10;;
59052;SDS011;44843;44.728;10.396;2023-04-16T19:07:33;3.25;;;1.30;;
59052;SDS011;44843;44.728;10.396;2023-04-16T20:05:41;1.80;;;1.50;;
59052;SDS011;44843;44.728;10.396;2023-04-16T20:08:06;1.70;;;1.50;;
59052;SDS011;44843;44.728;10.396;2023-04-16T20:10:31;3.47;;;1.87;;
59052;SDS011;44843;44.728;10.396;2023-04-16T20:12:57;2.80;;;2.10;;
59052;SDS011;44843;44.728;10.396;2023-04-16T20:15:22;5.07;;;2.77;;
59052;SDS011;44843;44.728;10.396;2023-04-16T20:17:48;4.23;;;2.63;;
59052;SDS011;44843;44.728;10.396;2023-04-16T20:20:13;2.85;;;2.10;;
59052;SDS011;44843;44.728;10.396;2023-04-16T20:22:40;3.30;;;2.00;;
59052;SDS011;44843;44.728;10.396;2023-04-16T20:25:05;4.07;;;2.45;;
59052;SDS011;44843;44.728;10.396;2023-04-16T20:27:31;3.35;;;2.72;;
59052;SDS011;44843;44.728;10.396;2023-04-16T20:29:57;5.17;;;3.20;;
59052;SDS011;44843;44.728;10.396;2023-04-16T20:32:22;4.07;;;2.75;;
59052;SDS011;44843;44.728;10.396;2023-04-16T20:34:48;3.73;;;2.03;;
59052;SDS011;44843;44.728;10.396;2023-04-16T20:37:13;2.60;;;2.20;;
59052;SDS011;44843;44.728;10.396;2023-04-16T20:39:38;3.47;;;2.30;;
59052;SDS011;44843;44.728;10.396;2023-04-16T20:42:04;2.60;;;2.00;;
59052;SDS011;44843;44.728;10.396;2023-04-16T20:44:34;2.60;;;1.97;;
59052;SDS011;44843;44.728;10.396;2023-04-16T20:47:04;2.75;;;1.70;;
59052;SDS011;44843;44.728;10.396;2023-04-16T20:49:29;3.78;;;1.80;;
59052;SDS011;44843;44.728;10.396;2023-04-16T20:51:55;1.97;;;1.70;;
59052;SDS011;44843;44.728;10.396;2023-04-16T20:54:20;2.07;;;1.70;;
59052;SDS011;44843;44.728;10.396;2023-04-16T20:56:45;4.13;;;2.00;;
59052;SDS011;44843;44.728;10.396;2023-04-16T20:59:11;2.10;;;1.90;;
59052;SDS011;44843;44.728;10.396;2023-04-16T21:01:37;2.53;;;2.00;;
59052;SDS011;44843;44.728;10.396;2023-04-16T21:04:02;4.65;;;2.13;;
59052;SDS011;44843;44.728;10.396;2023-04-16T21:06:27;2.63;;;1.93;;
59052;SDS011;44843;44.728;10.396;2023-04-16T21:08:56;1.98;;;1.77;;
59052;SDS011;44843;44.728;10.396;2023-04-16T21:11:21;2.03;;;1.80;;
59052;SDS011;44843;44.728;10.396;2023-04-16T21:13:47;2.10;;;1.70;;
59052;SDS011;44843;44.728;10.396;2023-04-16T21:16:12;2.47;;;1.60;;
59052;SDS011;44843;44.728;10.396;2023-04-16T21:18:37;3.93;;;2.10;;
59052;SDS011;44843;44.728;10.396;2023-04-16T21:21:02;2.83;;;2.10;;
59052;SDS011;44843;44.728;10.396;2023-04-16T21:23:28;3.10;;;1.90;;
59052;SDS011;44843;44.728;10.396;2023-04-16T21:25:56;2.10;;;1.87;;
59052;SDS011;44843;44.728;10.396;2023-04-16T21:28:21;2.50;;;2.30;;